world map with RJOF marked

RJOF - Airport

This information may not be accurate or current and is not valid for navigation or flight planning. No warranty of fitness for any purpose is made or implied.

flag of Yamaguchiflag of Japan

Donate via PayPal

Additional information is available on the NEW Great Circle Mapper

Location
City:  Hofu, Yamaguchi, Japan
ICAO:RJOF

Details
Type:Airport (Aerodrome, Airfield)
Use:Military
Latitude:34°02'05"N (34.034667)
Longitude:131°32'57"E (131.549194)
Datum:WGS 1984
Elevation:7 ft (2 m)
Runways:2
Longest:4856 × 148 ft (1480 × 45 m)

Time
Timezone:UTC+9 (DST+11)
Local Time:

Weather
METAR:RJOF  032244Z 27008KT 9999 FEW015 SCT035 09/06 Q1019 RMK 1CU015 3CU035 A3010

Related Locations
Nearby:
Farthest:SSMT: 12187 mi / 19613 km
Mostardas, RS, BR

Find:

   beyond  
but within

Other Information
Maps:
Sources:

  


 


Great Circle Mapper   Great Circle Mapper
Great Circle Mapper FAQ   Great Circle Mapper FAQ
  Karl's Home Page
KLSē   KLSē Home
   GC on Facebook
Airlines of the World   Airlines of the World
Donate via PayPal


Copyright © 2004-2020, Karl L. Swartz. All rights reserved.
All trademarks mentioned herein belong to their respective owners.

Please see credits for attribution and copyright information.

Karl Swartz <karl@kls2.com>
  Powered by FreeBSD
Valid HTML 4.01!
Labeled with ICRA
hCard Microformat
Geo Microformat